createdAt,value
2016-12-30T00:00:44.645Z,1034.04
2016-12-30T00:01:44.588Z,1033.98
2016-12-30T00:02:44.513Z,1033.98
2016-12-30T00:03:44.449Z,1033.97
2016-12-30T00:04:44.387Z,1033.97
2016-12-30T00:05:44.324Z,1033.98
2016-12-30T00:06:44.261Z,1033.99
2016-12-30T00:07:44.198Z,1033.95
2016-12-30T00:08:44.136Z,1033.98
2016-12-30T00:09:44.073Z,1033.97
2016-12-30T00:10:44.011Z,1033.92
2016-12-30T00:11:43.948Z,1033.91
2016-12-30T00:12:43.888Z,1033.97
2016-12-30T00:13:43.822Z,1034.01
2016-12-30T00:14:43.759Z,1033.99
2016-12-30T00:15:43.697Z,1034.06
2016-12-30T00:16:43.645Z,1034.06
2016-12-30T00:17:43.571Z,1034.08
2016-12-30T00:18:43.508Z,1034.15
2016-12-30T00:19:43.446Z,1034.16
2016-12-30T00:20:43.382Z,1034.19
2016-12-30T00:21:43.321Z,1034.18
2016-12-30T00:22:43.258Z,1034.16
2016-12-30T00:23:43.193Z,1034.16
2016-12-30T00:24:43.131Z,1034.09
2016-12-30T00:25:43.067Z,1034.08
2016-12-30T00:26:43.005Z,1034.08
2016-12-30T00:27:42.945Z,1034.02
2016-12-30T00:28:42.880Z,1034.03
2016-12-30T00:29:42.818Z,1034
2016-12-30T00:30:42.755Z,1033.99
2016-12-30T00:31:42.692Z,1033.98
2016-12-30T00:32:42.629Z,1033.96
2016-12-30T00:33:42.565Z,1033.98
2016-12-30T00:34:42.503Z,1033.98
2016-12-30T00:35:42.450Z,1033.99
2016-12-30T00:36:42.396Z,1033.97
2016-12-30T00:37:42.423Z,1033.98
2016-12-30T00:38:42.252Z,1033.97
2016-12-30T00:39:42.190Z,1033.94
2016-12-30T00:40:42.135Z,1033.93
2016-12-30T00:41:42.063Z,1033.97
2016-12-30T00:42:42.002Z,1033.93
2016-12-30T00:43:41.938Z,1033.95
2016-12-30T00:44:41.877Z,1033.96
2016-12-30T00:45:41.813Z,1034.01
2016-12-30T00:46:41.753Z,1033.96
2016-12-30T00:47:41.687Z,1033.97
2016-12-30T00:48:41.627Z,1033.95
2016-12-30T00:49:41.563Z,1033.93
2016-12-30T00:50:41.518Z,1033.97
2016-12-30T00:51:41.436Z,1033.98
2016-12-30T00:52:41.373Z,1033.96
2016-12-30T00:53:41.312Z,1033.96
2016-12-30T00:54:41.248Z,1033.94
2016-12-30T00:55:41.204Z,1033.96
2016-12-30T00:56:41.132Z,1033.96
2016-12-30T00:57:41.060Z,1034
2016-12-30T00:58:40.996Z,1033.96
2016-12-30T00:59:40.944Z,1033.98
2016-12-30T01:01:13.269Z,1033.93
2016-12-30T01:02:10.169Z,1033.91
2016-12-30T01:03:10.142Z,1033.91
2016-12-30T01:04:10.043Z,1033.91
2016-12-30T01:05:09.983Z,1033.91
2016-12-30T01:06:09.918Z,1033.9
2016-12-30T01:07:09.865Z,1033.89
2016-12-30T01:08:09.790Z,1033.88
2016-12-30T01:09:09.728Z,1033.92
2016-12-30T01:10:09.666Z,1033.95
2016-12-30T01:11:09.602Z,1033.92
2016-12-30T01:12:09.539Z,1033.92
2016-12-30T01:13:09.477Z,1033.89
2016-12-30T01:14:09.414Z,1033.9
2016-12-30T01:15:09.358Z,1033.91
2016-12-30T01:16:09.298Z,1033.87
2016-12-30T01:17:09.226Z,1033.86
2016-12-30T01:18:09.164Z,1033.86
2016-12-30T01:19:09.112Z,1033.85
2016-12-30T01:20:09.057Z,1033.84
2016-12-30T01:21:08.975Z,1033.84
2016-12-30T01:22:08.924Z,1033.82
2016-12-30T01:23:08.849Z,1033.82
2016-12-30T01:24:08.800Z,1033.77
2016-12-30T01:25:08.724Z,1033.78
2016-12-30T01:26:08.660Z,1033.81
2016-12-30T01:27:08.599Z,1033.78
2016-12-30T01:28:08.545Z,1033.77
2016-12-30T01:29:08.472Z,1033.79
2016-12-30T01:30:08.407Z,1033.74
2016-12-30T01:31:08.346Z,1033.76
2016-12-30T01:32:08.283Z,1033.75
2016-12-30T01:33:08.228Z,1033.7
2016-12-30T01:34:08.159Z,1033.65
2016-12-30T01:35:08.094Z,1033.71
2016-12-30T01:36:08.034Z,1033.67
2016-12-30T01:37:07.977Z,1033.71
2016-12-30T01:38:07.904Z,1033.7
2016-12-30T01:39:07.842Z,1033.68
2016-12-30T01:40:07.781Z,1033.68
2016-12-30T01:41:07.728Z,1033.68
2016-12-30T01:42:07.654Z,1033.69
2016-12-30T01:43:07.592Z,1033.66
2016-12-30T01:44:07.527Z,1033.64
2016-12-30T01:45:07.465Z,1033.66
2016-12-30T01:46:07.403Z,1033.64
2016-12-30T01:47:07.344Z,1033.63
2016-12-30T01:48:07.276Z,1033.68
2016-12-30T01:49:07.214Z,1033.65
2016-12-30T01:50:07.150Z,1033.7
2016-12-30T01:51:07.290Z,1033.66
2016-12-30T01:52:07.024Z,1033.63
2016-12-30T01:53:06.962Z,1033.63
2016-12-30T01:54:06.903Z,1033.64
2016-12-30T01:55:06.838Z,1033.65
2016-12-30T01:56:06.782Z,1033.65
2016-12-30T01:57:06.710Z,1033.65
2016-12-30T01:58:06.648Z,1033.63
2016-12-30T01:59:06.585Z,1033.63
2016-12-30T02:00:06.523Z,1033.63
2016-12-30T02:01:06.460Z,1033.63
2016-12-30T02:02:06.395Z,1033.59
2016-12-30T02:03:06.333Z,1033.55
2016-12-30T02:04:06.280Z,1033.6
2016-12-30T02:05:06.219Z,1033.57
2016-12-30T02:06:06.145Z,1033.54
2016-12-30T02:07:06.083Z,1033.58
2016-12-30T02:08:06.029Z,1033.59
2016-12-30T02:09:05.957Z,1033.57
2016-12-30T02:10:05.901Z,1033.55
2016-12-30T02:11:05.829Z,1033.57
2016-12-30T02:12:05.767Z,1033.55
2016-12-30T02:13:05.706Z,1033.5
2016-12-30T02:14:05.641Z,1033.46
2016-12-30T02:15:05.579Z,1033.47
2016-12-30T02:16:05.515Z,1033.46
2016-12-30T02:17:05.452Z,1033.43
2016-12-30T02:18:05.393Z,1033.42
2016-12-30T02:19:05.328Z,1033.42
2016-12-30T02:20:05.264Z,1033.39
2016-12-30T02:21:05.200Z,1033.38
2016-12-30T02:22:05.139Z,1033.34
2016-12-30T02:23:05.104Z,1033.3
2016-12-30T02:24:05.013Z,1033.31
2016-12-30T02:25:04.990Z,1033.25
2016-12-30T02:26:04.889Z,1033.25
2016-12-30T02:27:04.825Z,1033.23
2016-12-30T02:28:04.759Z,1033.24
2016-12-30T02:29:04.697Z,1033.24
2016-12-30T02:30:04.636Z,1033.21
2016-12-30T02:31:04.573Z,1033.22
2016-12-30T02:32:04.508Z,1033.24
2016-12-30T02:33:04.447Z,1033.23
2016-12-30T02:34:04.384Z,1033.22
2016-12-30T02:35:04.321Z,1033.2
2016-12-30T02:36:04.258Z,1033.2
2016-12-30T02:37:04.397Z,1033.24
2016-12-30T02:38:04.133Z,1033.25
2016-12-30T02:39:04.069Z,1033.2
2016-12-30T02:40:04.008Z,1033.19
2016-12-30T02:41:04.003Z,1033.19
2016-12-30T02:42:03.882Z,1033.17
2016-12-30T02:43:03.818Z,1033.17
2016-12-30T02:44:03.754Z,1033.22
2016-12-30T02:45:03.726Z,1033.17
2016-12-30T02:46:03.629Z,1033.18
2016-12-30T02:47:03.566Z,1033.14
2016-12-30T02:48:03.503Z,1033.16
2016-12-30T02:49:03.442Z,1033.16
2016-12-30T02:50:03.387Z,1033.14
2016-12-30T02:51:03.314Z,1033.16
2016-12-30T02:52:03.253Z,1033.16
2016-12-30T02:53:03.189Z,1033.14
2016-12-30T02:54:03.264Z,1033.16
2016-12-30T02:55:03.063Z,1033.12
2016-12-30T02:56:03.001Z,1033.15
2016-12-30T02:57:02.938Z,1033.08
2016-12-30T02:58:02.903Z,1033.09
2016-12-30T02:59:02.812Z,1033.08
2016-12-30T03:00:02.751Z,1033.04
2016-12-30T03:01:02.686Z,1033.05
2016-12-30T03:02:02.624Z,1033.06
2016-12-30T03:03:02.581Z,1033.08
2016-12-30T03:04:02.499Z,1033.07
2016-12-30T03:05:02.436Z,1033.06
2016-12-30T03:06:02.372Z,1033.06
2016-12-30T03:07:02.310Z,1033.07
2016-12-30T03:08:02.246Z,1033.09
2016-12-30T03:09:02.183Z,1033.13
2016-12-30T03:10:02.124Z,1033.15
2016-12-30T03:11:02.060Z,1033.13
2016-12-30T03:12:01.997Z,1033.12
2016-12-30T03:13:01.933Z,1033.13
2016-12-30T03:14:01.871Z,1033.13
2016-12-30T03:15:01.808Z,1033.11
2016-12-30T03:16:01.742Z,1033.1
2016-12-30T03:17:01.681Z,1033.08
2016-12-30T03:18:01.619Z,1033.07
2016-12-30T03:19:01.566Z,1033.06
2016-12-30T03:20:01.518Z,1033.08
2016-12-30T03:21:01.428Z,1033.03
2016-12-30T03:22:01.368Z,1033.06
2016-12-30T03:23:01.305Z,1033.04
2016-12-30T03:24:01.241Z,1032.99
2016-12-30T03:25:01.179Z,1033
2016-12-30T03:26:01.114Z,1032.99
2016-12-30T03:27:01.052Z,1032.96
2016-12-30T03:28:00.990Z,1032.97
2016-12-30T03:29:00.928Z,1032.96
2016-12-30T03:30:00.871Z,1032.94
2016-12-30T03:31:00.851Z,1032.93
2016-12-30T03:32:00.737Z,1032.92
2016-12-30T03:33:00.675Z,1032.9
2016-12-30T03:34:00.613Z,1032.92
2016-12-30T03:35:00.551Z,1032.93
2016-12-30T03:36:00.488Z,1032.87
2016-12-30T03:37:00.424Z,1032.92
2016-12-30T03:38:00.359Z,1032.9
2016-12-30T03:39:00.297Z,1032.92
2016-12-30T03:40:00.235Z,1032.85
2016-12-30T03:41:00.172Z,1032.89
2016-12-30T03:42:00.108Z,1032.86
2016-12-30T03:43:00.050Z,1032.87
2016-12-30T03:43:59.984Z,1032.87
2016-12-30T03:44:59.942Z,1032.87
2016-12-30T03:45:59.856Z,1032.85
2016-12-30T03:46:59.823Z,1032.86
2016-12-30T03:47:59.862Z,1032.86
2016-12-30T03:48:59.754Z,1032.89
2016-12-30T03:49:59.605Z,1032.86
2016-12-30T03:50:59.544Z,1032.88
2016-12-30T03:51:59.480Z,1032.92
2016-12-30T03:52:59.416Z,1032.93
2016-12-30T03:53:59.355Z,1032.91
2016-12-30T03:54:59.313Z,1032.91
2016-12-30T03:55:59.229Z,1032.88
2016-12-30T03:56:59.165Z,1032.84
2016-12-30T03:57:59.102Z,1032.79
2016-12-30T03:58:59.040Z,1032.8
2016-12-30T03:59:58.978Z,1032.8
2016-12-30T04:00:58.914Z,1032.78
2016-12-30T04:01:58.860Z,1032.8
2016-12-30T04:02:58.788Z,1032.78
2016-12-30T04:03:58.731Z,1032.77
2016-12-30T04:04:58.672Z,1032.74
2016-12-30T04:05:58.601Z,1032.77
2016-12-30T04:06:58.537Z,1032.7
2016-12-30T04:07:58.474Z,1032.69
2016-12-30T04:08:58.411Z,1032.67
2016-12-30T04:09:58.359Z,1032.66
2016-12-30T04:10:58.288Z,1032.64
2016-12-30T04:11:58.426Z,1032.63
2016-12-30T04:12:58.161Z,1032.62
2016-12-30T04:13:58.100Z,1032.62
2016-12-30T04:14:58.035Z,1032.59
2016-12-30T04:15:57.972Z,1032.59
2016-12-30T04:16:57.910Z,1032.58
2016-12-30T04:17:58.049Z,1032.57
2016-12-30T04:18:57.785Z,1032.59
2016-12-30T04:19:57.721Z,1032.57
2016-12-30T04:20:57.732Z,1032.56
2016-12-30T04:21:57.596Z,1032.6
2016-12-30T04:22:57.533Z,1032.61
2016-12-30T04:23:57.481Z,1032.64
2016-12-30T04:24:57.414Z,1032.6
2016-12-30T04:25:57.359Z,1032.6
2016-12-30T04:26:57.281Z,1032.58
2016-12-30T04:27:57.219Z,1032.57
2016-12-30T04:28:57.156Z,1032.58
2016-12-30T04:29:57.103Z,1032.58
2016-12-30T04:30:57.032Z,1032.58
2016-12-30T04:31:56.975Z,1032.56
2016-12-30T04:32:56.912Z,1032.58
2016-12-30T04:33:56.841Z,1032.58
2016-12-30T04:34:56.779Z,1032.62
2016-12-30T04:35:56.716Z,1032.58
2016-12-30T04:36:56.652Z,1032.6
2016-12-30T04:37:56.740Z,1032.61
2016-12-30T04:38:56.528Z,1032.6
2016-12-30T04:39:56.464Z,1032.62
2016-12-30T04:40:56.402Z,1032.61
2016-12-30T04:41:56.340Z,1032.6
2016-12-30T04:42:56.276Z,1032.59
2016-12-30T04:43:56.221Z,1032.55
2016-12-30T04:44:56.151Z,1032.53
2016-12-30T04:45:56.088Z,1032.53
2016-12-30T04:46:56.025Z,1032.52
2016-12-30T04:47:55.963Z,1032.52
2016-12-30T04:48:55.899Z,1032.55
2016-12-30T04:49:55.836Z,1032.54
2016-12-30T04:50:55.772Z,1032.57
2016-12-30T04:51:55.711Z,1032.55
2016-12-30T04:52:55.648Z,1032.55
2016-12-30T04:53:55.585Z,1032.52
2016-12-30T04:54:55.560Z,1032.57
2016-12-30T04:55:55.459Z,1032.56
2016-12-30T04:56:55.397Z,1032.53
2016-12-30T04:57:55.335Z,1032.52
2016-12-30T04:58:55.372Z,1032.44
2016-12-30T04:59:55.208Z,1032.45
2016-12-30T05:00:55.146Z,1032.43
2016-12-30T05:01:55.085Z,1032.41
2016-12-30T05:02:55.025Z,1032.43
2016-12-30T05:03:54.957Z,1032.42
2016-12-30T05:04:54.900Z,1032.47
2016-12-30T05:05:54.831Z,1032.49
2016-12-30T05:06:54.768Z,1032.48
2016-12-30T05:07:54.706Z,1032.49
2016-12-30T05:08:54.643Z,1032.56
2016-12-30T05:09:54.580Z,1032.53
2016-12-30T05:10:54.546Z,1032.51
2016-12-30T05:11:54.455Z,1032.54
2016-12-30T05:12:54.391Z,1032.54
2016-12-30T05:13:54.327Z,1032.57
2016-12-30T05:14:54.266Z,1032.6
2016-12-30T05:15:54.206Z,1033
2016-12-30T05:16:54.140Z,1033.09
2016-12-30T05:17:54.077Z,1032.67
2016-12-30T05:18:54.015Z,1032.68
2016-12-30T05:19:53.960Z,1032.63
2016-12-30T05:20:53.888Z,1032.61
2016-12-30T05:21:53.843Z,1032.59
2016-12-30T05:22:53.763Z,1032.62
2016-12-30T05:23:53.700Z,1032.65
2016-12-30T05:24:53.639Z,1032.63
2016-12-30T05:25:53.575Z,1032.63
2016-12-30T05:26:53.511Z,1032.59
2016-12-30T05:27:53.552Z,1032.59
2016-12-30T05:28:53.386Z,1032.58
2016-12-30T05:29:53.323Z,1032.61
2016-12-30T05:30:53.260Z,1032.57
2016-12-30T05:31:53.207Z,1032.58
2016-12-30T05:32:53.134Z,1032.59
2016-12-30T05:33:53.133Z,1032.56
2016-12-30T05:34:53.007Z,1032.49
2016-12-30T05:35:52.945Z,1032.45
2016-12-30T05:36:52.883Z,1032.48
2016-12-30T05:37:52.819Z,1032.45
2016-12-30T05:38:52.768Z,1032.46
2016-12-30T05:39:52.693Z,1032.47
2016-12-30T05:40:52.632Z,1032.45
2016-12-30T05:41:52.569Z,1032.48
2016-12-30T05:42:52.504Z,1032.46
2016-12-30T05:43:52.443Z,1032.46
2016-12-30T05:44:52.380Z,1032.43
2016-12-30T05:45:52.317Z,1032.39
2016-12-30T05:46:52.255Z,1032.41
2016-12-30T05:47:52.201Z,1032.45
2016-12-30T05:48:52.129Z,1032.43
2016-12-30T05:49:52.066Z,1032.39
2016-12-30T05:50:52.003Z,1032.4
2016-12-30T05:51:51.940Z,1032.41
2016-12-30T05:52:51.879Z,1032.35
2016-12-30T05:53:51.815Z,1032.33
2016-12-30T05:54:51.753Z,1032.35
2016-12-30T05:55:51.689Z,1032.36
2016-12-30T05:56:51.627Z,1032.32
2016-12-30T05:57:51.621Z,1032.32
2016-12-30T05:58:51.501Z,1032.3
2016-12-30T05:59:51.437Z,1032.3
2016-12-30T06:00:51.577Z,1032.26
2016-12-30T06:01:51.312Z,1032.27
2016-12-30T06:02:51.249Z,1032.3
2016-12-30T06:03:51.186Z,1032.3
2016-12-30T06:04:51.123Z,1032.31
2016-12-30T06:05:51.061Z,1032.31
2016-12-30T06:06:50.997Z,1032.3
2016-12-30T06:07:50.934Z,1032.33
2016-12-30T06:08:50.872Z,1032.3
2016-12-30T06:09:50.810Z,1032.32
2016-12-30T06:10:50.745Z,1032.3
2016-12-30T06:11:50.682Z,1032.29
2016-12-30T06:12:50.634Z,1032.3
2016-12-30T06:13:50.559Z,1032.27
2016-12-30T06:14:50.502Z,1032.3
2016-12-30T06:15:50.432Z,1032.32
2016-12-30T06:16:50.370Z,1032.33
2016-12-30T06:17:50.418Z,1032.32
2016-12-30T06:18:50.250Z,1032.36
2016-12-30T06:19:50.179Z,1032.32
2016-12-30T06:20:50.119Z,1032.34
2016-12-30T06:21:50.054Z,1032.33
2016-12-30T06:22:49.999Z,1032.35
2016-12-30T06:23:49.928Z,1032.35
2016-12-30T06:24:49.865Z,1032.31
2016-12-30T06:25:49.802Z,1032.37
2016-12-30T06:26:49.740Z,1032.37
2016-12-30T06:27:49.687Z,1032.37
2016-12-30T06:28:49.614Z,1032.37
2016-12-30T06:29:49.552Z,1032.36
2016-12-30T06:30:49.557Z,1032.4
2016-12-30T06:31:49.426Z,1032.37
2016-12-30T06:32:49.398Z,1032.37
2016-12-30T06:33:49.299Z,1032.35
2016-12-30T06:34:49.237Z,1032.35
2016-12-30T06:35:49.174Z,1032.32
2016-12-30T06:36:49.109Z,1032.31
2016-12-30T06:37:49.048Z,1032.29
2016-12-30T06:38:48.986Z,1032.29
2016-12-30T06:39:48.922Z,1032.27
2016-12-30T06:40:48.858Z,1032.24
2016-12-30T06:41:48.796Z,1032.2
2016-12-30T06:42:48.733Z,1032.2
2016-12-30T06:43:48.670Z,1032.19
2016-12-30T06:44:48.608Z,1032.19
2016-12-30T06:45:48.545Z,1032.21
2016-12-30T06:46:48.481Z,1032.21
2016-12-30T06:47:48.431Z,1032.23
2016-12-30T06:48:48.358Z,1032.22
2016-12-30T06:49:48.294Z,1032.24
2016-12-30T06:50:48.432Z,1032.26
2016-12-30T06:51:48.168Z,1032.24
2016-12-30T06:52:48.105Z,1032.25
2016-12-30T06:53:48.043Z,1032.21
2016-12-30T06:54:47.977Z,1032.24
2016-12-30T06:55:47.922Z,1032.25
2016-12-30T06:56:47.853Z,1032.26
2016-12-30T06:57:47.799Z,1032.27
2016-12-30T06:58:47.727Z,1032.24
2016-12-30T06:59:47.664Z,1032.25
2016-12-30T07:00:47.603Z,1032.25
2016-12-30T07:01:47.539Z,1032.25
2016-12-30T07:02:47.476Z,1032.24
2016-12-30T07:03:47.413Z,1032.25
2016-12-30T07:04:47.352Z,1032.27
2016-12-30T07:05:47.288Z,1032.28
2016-12-30T07:06:47.224Z,1032.28
2016-12-30T07:07:47.331Z,1032.33
2016-12-30T07:08:47.100Z,1032.27
2016-12-30T07:09:47.036Z,1032.25
2016-12-30T07:10:46.974Z,1032.23
2016-12-30T07:11:46.911Z,1032.22
2016-12-30T07:12:46.848Z,1032.15
2016-12-30T07:13:46.784Z,1032.13
2016-12-30T07:14:46.736Z,1032.1
2016-12-30T07:15:46.659Z,1032.09
2016-12-30T07:16:46.597Z,1032.13
2016-12-30T07:17:46.533Z,1032.1
2016-12-30T07:18:46.469Z,1032.07
2016-12-30T07:19:46.407Z,1032.05
2016-12-30T07:20:46.345Z,1032.02
2016-12-30T07:21:46.281Z,1032
2016-12-30T07:22:46.220Z,1031.97
2016-12-30T07:23:46.158Z,1031.95
2016-12-30T07:24:46.097Z,1031.99
2016-12-30T07:25:46.030Z,1031.98
2016-12-30T07:26:45.973Z,1031.99
2016-12-30T07:27:45.904Z,1032.04
2016-12-30T07:28:45.841Z,1032.04
2016-12-30T07:29:45.779Z,1032.05
2016-12-30T07:30:45.716Z,1032.08
2016-12-30T07:31:45.652Z,1032.08
2016-12-30T07:32:45.593Z,1032.05
2016-12-30T07:33:45.528Z,1032.04
2016-12-30T07:34:45.463Z,1032.03
2016-12-30T07:35:45.403Z,1032.08
2016-12-30T07:36:45.340Z,1032.07
2016-12-30T07:37:45.277Z,1032.1
2016-12-30T07:38:45.223Z,1032.14
2016-12-30T07:39:45.151Z,1032.08
2016-12-30T07:40:45.290Z,1032.09
2016-12-30T07:41:45.025Z,1032.1
2016-12-30T07:42:44.967Z,1032.09
2016-12-30T07:43:44.899Z,1032.12
2016-12-30T07:44:44.836Z,1032.1
2016-12-30T07:45:44.774Z,1032.13
2016-12-30T07:46:44.710Z,1032.08
2016-12-30T07:47:44.648Z,1032.07
2016-12-30T07:48:44.585Z,1032.08
2016-12-30T07:49:44.522Z,1032.14
2016-12-30T07:50:44.459Z,1032.14
2016-12-30T07:51:44.397Z,1032.16
2016-12-30T07:52:44.333Z,1032.21
2016-12-30T07:53:44.271Z,1032.18
2016-12-30T07:54:44.208Z,1032.25
2016-12-30T07:55:44.145Z,1032.26
2016-12-30T07:56:44.080Z,1032.24
2016-12-30T07:57:44.160Z,1032.23
2016-12-30T07:58:43.957Z,1032.24
2016-12-30T07:59:43.894Z,1032.21
2016-12-30T08:00:43.860Z,1032.23
2016-12-30T08:01:43.766Z,1032.25
2016-12-30T08:02:43.705Z,1032.26
2016-12-30T08:03:43.641Z,1032.29
2016-12-30T08:04:43.589Z,1032.29
2016-12-30T08:05:43.525Z,1032.25
2016-12-30T08:06:43.470Z,1032.25
2016-12-30T08:07:43.399Z,1032.24
2016-12-30T08:08:43.329Z,1032.26
2016-12-30T08:09:43.334Z,1032.26
2016-12-30T08:10:43.201Z,1032.28
2016-12-30T08:11:43.139Z,1032.26
2016-12-30T08:12:43.076Z,1032.3
2016-12-30T08:13:43.014Z,1032.33
2016-12-30T08:14:42.950Z,1032.36
2016-12-30T08:15:42.887Z,1032.32
2016-12-30T08:16:42.875Z,1032.35
2016-12-30T08:17:42.762Z,1032.34
2016-12-30T08:18:42.901Z,1032.33
2016-12-30T08:19:42.636Z,1032.33
2016-12-30T08:20:42.574Z,1032.34
2016-12-30T08:21:42.510Z,1032.36
2016-12-30T08:22:42.447Z,1032.32
2016-12-30T08:23:42.384Z,1032.37
2016-12-30T08:24:42.322Z,1032.35
2016-12-30T08:25:42.258Z,1032.39
2016-12-30T08:26:42.209Z,1032.38
2016-12-30T08:27:42.131Z,1032.4
2016-12-30T08:28:42.070Z,1032.4
2016-12-30T08:29:42.013Z,1032.41
2016-12-30T08:30:41.996Z,1032.39
2016-12-30T08:31:41.881Z,1032.37
2016-12-30T08:32:41.821Z,1032.37
2016-12-30T08:33:41.761Z,1032.35
2016-12-30T08:34:41.691Z,1032.33
2016-12-30T08:35:41.631Z,1032.3
2016-12-30T08:36:41.567Z,1032.36
2016-12-30T08:37:41.503Z,1032.33
2016-12-30T08:38:41.493Z,1032.39
2016-12-30T08:39:41.378Z,1032.34
2016-12-30T08:40:41.313Z,1032.37
2016-12-30T08:41:41.253Z,1032.35
2016-12-30T08:42:41.190Z,1032.35
2016-12-30T08:43:41.210Z,1032.38
2016-12-30T08:44:41.266Z,1032.35
2016-12-30T08:45:41.002Z,1032.29
2016-12-30T08:46:40.939Z,1032.3
2016-12-30T08:47:41.005Z,1032.26
2016-12-30T08:48:40.813Z,1032.26
2016-12-30T08:49:40.749Z,1032.24
2016-12-30T08:50:40.690Z,1032.25
2016-12-30T08:51:40.622Z,1032.22
2016-12-30T08:52:40.559Z,1032.2
2016-12-30T08:53:40.497Z,1032.24
2016-12-30T08:54:40.435Z,1032.24
2016-12-30T08:55:40.372Z,1032.23
2016-12-30T08:56:40.309Z,1032.23
2016-12-30T08:57:40.247Z,1032.22
2016-12-30T08:58:40.183Z,1032.21
2016-12-30T08:59:40.121Z,1032.21
2016-12-30T09:00:40.058Z,1032.2
2016-12-30T09:01:39.995Z,1032.19
2016-12-30T09:02:39.932Z,1032.22
2016-12-30T09:03:39.867Z,1032.24
2016-12-30T09:04:39.806Z,1032.23
2016-12-30T09:05:39.743Z,1032.21
2016-12-30T09:06:39.679Z,1032.26
2016-12-30T09:07:39.616Z,1032.27
2016-12-30T09:08:39.554Z,1032.3
2016-12-30T09:09:39.495Z,1032.28
2016-12-30T09:10:39.429Z,1032.27
2016-12-30T09:11:39.364Z,1032.26
2016-12-30T09:12:39.302Z,1032.26
2016-12-30T09:13:39.239Z,1032.21
2016-12-30T09:14:39.177Z,1032.25
2016-12-30T09:15:39.113Z,1032.25
2016-12-30T09:16:39.056Z,1032.27
2016-12-30T09:17:38.987Z,1032.25
2016-12-30T09:18:38.925Z,1032.24
2016-12-30T09:19:38.871Z,1032.23
2016-12-30T09:20:38.870Z,1032.19
2016-12-30T09:21:38.736Z,1032.14
2016-12-30T09:22:38.674Z,1032.11
2016-12-30T09:23:38.614Z,1032.03
2016-12-30T09:24:38.548Z,1032.02
2016-12-30T09:25:38.483Z,1031.98
2016-12-30T09:26:38.431Z,1031.94
2016-12-30T09:27:38.357Z,1031.98
2016-12-30T09:28:38.302Z,1031.95
2016-12-30T09:29:38.233Z,1031.96
2016-12-30T09:30:38.169Z,1031.96
2016-12-30T09:31:38.106Z,1031.93
2016-12-30T09:32:38.044Z,1031.95
2016-12-30T09:33:37.981Z,1031.91
2016-12-30T09:34:37.917Z,1031.9
2016-12-30T09:35:37.855Z,1031.92
2016-12-30T09:36:37.805Z,1031.92
2016-12-30T09:37:37.862Z,1031.87
2016-12-30T09:38:37.666Z,1031.92
2016-12-30T09:39:37.603Z,1031.9
2016-12-30T09:40:37.553Z,1031.91
2016-12-30T09:41:37.479Z,1031.9
2016-12-30T09:42:37.419Z,1031.87
2016-12-30T09:43:37.353Z,1031.82
2016-12-30T09:44:37.296Z,1031.86
2016-12-30T09:45:37.226Z,1031.81
2016-12-30T09:46:37.162Z,1031.77
2016-12-30T09:47:37.101Z,1031.73
2016-12-30T09:48:37.038Z,1031.72
2016-12-30T09:49:36.975Z,1031.69
2016-12-30T09:50:36.913Z,1031.69
2016-12-30T09:51:36.850Z,1031.64
2016-12-30T09:52:36.786Z,1031.64
2016-12-30T09:53:36.723Z,1031.63
2016-12-30T09:54:36.661Z,1031.6
2016-12-30T09:55:36.597Z,1031.57
2016-12-30T09:56:36.535Z,1031.54
2016-12-30T09:57:36.471Z,1031.56
2016-12-30T09:58:36.408Z,1031.56
2016-12-30T09:59:36.347Z,1031.57
2016-12-30T10:00:36.283Z,1031.55
2016-12-30T10:01:36.220Z,1031.58
2016-12-30T10:02:36.158Z,1031.61
2016-12-30T10:03:36.094Z,1031.63
2016-12-30T10:04:36.032Z,1031.64
2016-12-30T10:05:35.969Z,1031.63
2016-12-30T10:06:35.906Z,1031.63
2016-12-30T10:07:36.045Z,1031.63
2016-12-30T10:08:35.780Z,1031.64
2016-12-30T10:09:35.720Z,1031.64
2016-12-30T10:10:35.857Z,1031.6
2016-12-30T10:11:35.591Z,1031.56
2016-12-30T10:12:35.529Z,1031.51
2016-12-30T10:13:35.466Z,1031.52
2016-12-30T10:14:35.404Z,1031.54
2016-12-30T10:15:35.338Z,1031.53
2016-12-30T10:16:35.282Z,1031.53
2016-12-30T10:17:35.213Z,1031.53
2016-12-30T10:18:35.152Z,1031.55
2016-12-30T10:19:35.087Z,1031.54
2016-12-30T10:20:35.078Z,1031.53
2016-12-30T10:21:34.963Z,1031.49
2016-12-30T10:22:34.903Z,1031.49
2016-12-30T10:23:34.837Z,1031.47
2016-12-30T10:24:34.774Z,1031.44
2016-12-30T10:25:34.711Z,1031.44
2016-12-30T10:26:34.648Z,1031.45
2016-12-30T10:27:34.588Z,1031.41
2016-12-30T10:28:34.523Z,1031.46
2016-12-30T10:29:34.464Z,1031.4
2016-12-30T10:30:34.398Z,1031.38
2016-12-30T10:31:34.335Z,1031.43
2016-12-30T10:32:34.295Z,1031.39
2016-12-30T10:33:34.209Z,1031.44
2016-12-30T10:34:34.146Z,1031.43
2016-12-30T10:35:34.083Z,1031.43
2016-12-30T10:36:34.021Z,1031.41
2016-12-30T10:37:33.957Z,1031.44
2016-12-30T10:38:33.895Z,1031.42
2016-12-30T10:39:33.844Z,1031.39
2016-12-30T10:40:33.769Z,1031.36
2016-12-30T10:41:33.708Z,1031.34
2016-12-30T10:42:33.643Z,1031.32
2016-12-30T10:43:33.585Z,1031.28
2016-12-30T10:44:33.550Z,1031.28
2016-12-30T10:45:33.456Z,1031.28
2016-12-30T10:46:33.392Z,1031.24
2016-12-30T10:47:33.328Z,1031.2
2016-12-30T10:48:33.265Z,1031.19
2016-12-30T10:49:33.203Z,1031.17
2016-12-30T10:50:33.139Z,1031.15
2016-12-30T10:51:33.078Z,1031.13
2016-12-30T10:52:33.013Z,1031.13
2016-12-30T10:53:32.952Z,1031.12
2016-12-30T10:54:32.889Z,1031.15
2016-12-30T10:55:32.824Z,1031.18
2016-12-30T10:56:32.762Z,1031.16
2016-12-30T10:57:32.700Z,1031.18
2016-12-30T10:58:32.637Z,1031.2
2016-12-30T10:59:32.580Z,1031.19
2016-12-30T11:00:32.599Z,1031.2
2016-12-30T11:01:32.448Z,1031.22
2016-12-30T11:02:32.383Z,1031.22
2016-12-30T11:03:32.326Z,1031.19
2016-12-30T11:04:32.258Z,1031.2
2016-12-30T11:05:32.197Z,1031.19
2016-12-30T11:06:32.133Z,1031.18
2016-12-30T11:07:32.070Z,1031.15
2016-12-30T11:08:32.008Z,1031.11
2016-12-30T11:09:31.946Z,1031.12
2016-12-30T11:10:31.886Z,1031.1
2016-12-30T11:11:31.819Z,1031.13
2016-12-30T11:12:31.783Z,1031.11
2016-12-30T11:13:31.694Z,1031.1
2016-12-30T11:14:31.631Z,1031.09
2016-12-30T11:15:31.567Z,1031.09
2016-12-30T11:16:31.506Z,1031.08
2016-12-30T11:17:31.441Z,1031.1
2016-12-30T11:18:31.377Z,1031.07
2016-12-30T11:19:31.320Z,1031.05
2016-12-30T11:20:31.252Z,1031.03
2016-12-30T11:21:31.188Z,1031.06
2016-12-30T11:22:31.126Z,1031.07
2016-12-30T11:23:31.079Z,1031.08
2016-12-30T11:24:31.000Z,1031.08
2016-12-30T11:25:30.938Z,1031.12
2016-12-30T11:26:30.877Z,1031.14
2016-12-30T11:27:30.810Z,1031.12
2016-12-30T11:28:30.748Z,1031.09
2016-12-30T11:29:30.685Z,1031.1
2016-12-30T11:30:30.621Z,1031.11
2016-12-30T11:31:30.560Z,1031.07
2016-12-30T11:32:30.496Z,1031.07
2016-12-30T11:33:30.444Z,1031.04
2016-12-30T11:34:30.371Z,1031.04
2016-12-30T11:35:30.307Z,1031.04
2016-12-30T11:36:30.244Z,1031.04
2016-12-30T11:37:30.181Z,1031
2016-12-30T11:38:30.118Z,1031.05
2016-12-30T11:39:30.055Z,1031.03
2016-12-30T11:40:29.992Z,1031.06
2016-12-30T11:41:29.928Z,1031.06
2016-12-30T11:42:29.868Z,1031.07
2016-12-30T11:43:29.803Z,1031.05
2016-12-30T11:44:29.739Z,1031.03
2016-12-30T11:45:29.689Z,1031.07
2016-12-30T11:46:29.614Z,1031.08
2016-12-30T11:47:29.552Z,1031.06
2016-12-30T11:48:29.492Z,1031.05
2016-12-30T11:49:29.426Z,1031.07
2016-12-30T11:50:29.565Z,1031.1
2016-12-30T11:51:29.313Z,1031.1
2016-12-30T11:52:29.236Z,1031.09
2016-12-30T11:53:29.173Z,1031.06
2016-12-30T11:54:29.109Z,1031.04
2016-12-30T11:55:29.047Z,1031.01
2016-12-30T11:56:28.985Z,1030.99
2016-12-30T11:57:28.921Z,1030.96
2016-12-30T11:58:28.857Z,1030.95
2016-12-30T11:59:28.795Z,1030.91
2016-12-30T12:00:28.752Z,1030.88
2016-12-30T12:01:28.667Z,1030.85
2016-12-30T12:02:28.605Z,1030.85
2016-12-30T12:03:28.543Z,1030.82
2016-12-30T12:04:28.481Z,1030.81
2016-12-30T12:05:28.419Z,1030.82
2016-12-30T12:06:28.356Z,1030.83
2016-12-30T12:07:28.294Z,1030.83
2016-12-30T12:08:28.230Z,1030.88